createdAt,value
2022-08-19T00:01:32.229Z,21.38
2022-08-19T00:04:08.665Z,22.98
2022-08-19T00:06:36.940Z,21.15
2022-08-19T00:09:06.638Z,19.42
2022-08-19T00:11:33.253Z,25.65
2022-08-19T00:13:59.710Z,19.10
2022-08-19T00:16:27.056Z,26.08
2022-08-19T00:18:55.578Z,17.02
2022-08-19T00:21:23.934Z,23.98
2022-08-19T00:23:50.373Z,22.15
2022-08-19T00:26:16.836Z,24.20
2022-08-19T00:28:43.273Z,19.38
2022-08-19T00:31:10.625Z,24.58
2022-08-19T00:33:37.750Z,28.33
2022-08-19T00:36:07.916Z,23.17
2022-08-19T00:38:37.766Z,20.70
2022-08-19T00:41:06.401Z,23.98
2022-08-19T00:43:33.343Z,19.85
2022-08-19T00:45:59.800Z,20.70
2022-08-19T00:48:26.231Z,21.00
2022-08-19T00:50:53.803Z,22.98
2022-08-19T00:53:24.002Z,27.80
2022-08-19T00:55:53.714Z,21.98
2022-08-19T00:58:23.144Z,20.75
2022-08-19T01:00:49.748Z,24.60
2022-08-19T01:03:20.201Z,23.63
2022-08-19T01:05:50.238Z,21.95
2022-08-19T01:08:18.898Z,24.33
2022-08-19T01:10:49.828Z,20.52
2022-08-19T01:13:20.013Z,17.60
2022-08-19T01:15:50.999Z,26.67
2022-08-19T01:18:20.146Z,21.25
2022-08-19T01:20:47.532Z,23.73
2022-08-19T01:23:14.651Z,22.60
2022-08-19T01:25:50.755Z,22.77
2022-08-19T01:28:34.300Z,25.88
2022-08-19T01:31:27.190Z,21.88
2022-08-19T01:33:56.526Z,19.40
2022-08-19T01:36:36.256Z,24.30
2022-08-19T01:39:06.614Z,23.40
2022-08-19T01:41:33.525Z,26.67
2022-08-19T01:44:17.043Z,23.90
2022-08-19T01:46:47.804Z,19.70
2022-08-19T01:49:14.132Z,20.00
2022-08-19T01:51:40.651Z,20.65
2022-08-19T01:54:12.426Z,24.63
2022-08-19T01:56:38.961Z,20.40
2022-08-19T01:59:11.421Z,20.92
2022-08-19T02:01:37.791Z,24.42
2022-08-19T02:04:04.368Z,22.15
2022-08-19T02:06:30.961Z,22.45
2022-08-19T02:08:57.831Z,20.65
2022-08-19T02:11:30.980Z,19.17
2022-08-19T02:13:59.198Z,19.23
2022-08-19T02:16:25.561Z,21.63
2022-08-19T02:18:52.479Z,18.30
2022-08-19T02:21:20.846Z,17.85
2022-08-19T02:23:47.621Z,22.20
2022-08-19T02:26:14.302Z,18.23
2022-08-19T02:28:42.003Z,15.63
2022-08-19T02:31:17.967Z,18.35
2022-08-19T02:33:45.561Z,17.65
2022-08-19T02:36:15.558Z,17.88
2022-08-19T02:38:42.951Z,20.60
2022-08-19T02:41:23.040Z,18.30
2022-08-19T02:44:26.497Z,15.63
2022-08-19T02:46:40.325Z,20.05
2022-08-19T02:49:08.674Z,14.95
2022-08-19T02:51:39.986Z,12.73
2022-08-19T02:54:08.441Z,15.88
2022-08-19T02:56:36.897Z,20.45
2022-08-19T02:59:04.908Z,16.83
2022-08-19T03:01:33.543Z,17.58
2022-08-19T03:04:06.178Z,15.98
2022-08-19T03:06:33.114Z,18.23
2022-08-19T03:08:59.571Z,14.20
2022-08-19T03:11:31.848Z,14.43
2022-08-19T03:13:59.590Z,15.95
2022-08-19T03:16:33.507Z,21.42
2022-08-19T03:19:01.571Z,16.20
2022-08-19T03:21:30.702Z,15.50
2022-08-19T03:24:03.008Z,16.27
2022-08-19T03:26:30.710Z,17.30
2022-08-19T03:28:58.768Z,16.50
2022-08-19T03:31:43.664Z,16.73
2022-08-19T03:34:16.870Z,16.52
2022-08-19T03:36:43.213Z,18.35
2022-08-19T03:39:11.393Z,17.23
2022-08-19T03:41:45.449Z,16.75
2022-08-19T03:44:18.941Z,19.40
2022-08-19T03:46:48.054Z,19.48
2022-08-19T03:49:14.964Z,21.17
2022-08-19T03:51:42.709Z,17.35
2022-08-19T03:54:12.310Z,21.13
2022-08-19T03:56:40.538Z,16.83
2022-08-19T03:59:09.530Z,18.52
2022-08-19T04:01:36.481Z,22.08
2022-08-19T04:04:04.833Z,18.48
2022-08-19T04:06:33.788Z,18.23
2022-08-19T04:09:02.372Z,20.33
2022-08-19T04:11:43.165Z,18.45
2022-08-19T04:14:13.118Z,21.45
2022-08-19T04:16:39.571Z,21.23
2022-08-19T04:19:07.363Z,19.92
2022-08-19T04:21:35.162Z,23.98
2022-08-19T04:24:02.310Z,18.52
2022-08-19T04:26:35.196Z,17.55
2022-08-19T04:29:10.432Z,20.45
2022-08-19T04:31:38.742Z,20.73
2022-08-19T04:34:07.964Z,20.67
2022-08-19T04:36:37.119Z,20.58
2022-08-19T04:39:08.221Z,24.85
2022-08-19T04:41:35.238Z,19.25
2022-08-19T04:44:04.415Z,18.67
2022-08-19T04:46:40.186Z,19.52
2022-08-19T04:49:22.575Z,16.15
2022-08-19T04:51:50.239Z,20.92
2022-08-19T04:54:36.968Z,19.80
2022-08-19T04:57:05.505Z,17.58
2022-08-19T04:59:31.967Z,18.45
2022-08-19T05:01:58.547Z,17.52
2022-08-19T05:04:25.217Z,13.95
2022-08-19T05:06:51.570Z,19.50
2022-08-19T05:09:18.278Z,19.55
2022-08-19T05:11:44.995Z,16.23
2022-08-19T05:14:12.034Z,20.67
2022-08-19T05:16:38.717Z,18.63
2022-08-19T05:19:05.162Z,17.02
2022-08-19T05:21:33.190Z,13.68
2022-08-19T05:23:59.874Z,20.90
2022-08-19T05:26:27.232Z,15.63
2022-08-19T05:28:54.670Z,14.55
2022-08-19T05:31:22.565Z,14.10
2022-08-19T05:33:49.094Z,13.85
2022-08-19T05:36:15.454Z,10.75
2022-08-19T05:38:41.876Z,16.05
2022-08-19T05:41:12.835Z,20.95
2022-08-19T05:43:39.618Z,12.73
2022-08-19T05:46:08.124Z,10.93
2022-08-19T05:48:35.374Z,12.10
2022-08-19T05:51:08.416Z,9.27
2022-08-19T05:53:36.188Z,8.23
2022-08-19T05:56:09.535Z,10.30
2022-08-19T05:58:37.121Z,13.68
2022-08-19T06:01:05.824Z,7.93
2022-08-19T06:03:35.412Z,10.98
2022-08-19T06:06:01.776Z,8.30
2022-08-19T06:08:33.859Z,7.38
2022-08-19T06:11:21.355Z,10.02
2022-08-19T06:13:50.883Z,10.35
2022-08-19T06:16:18.661Z,5.78
2022-08-19T06:18:45.010Z,9.00
2022-08-19T06:21:11.485Z,6.53
2022-08-19T06:23:38.343Z,7.03
2022-08-19T06:26:04.726Z,9.55
2022-08-19T06:28:31.131Z,5.93
2022-08-19T06:30:57.465Z,10.05
2022-08-19T06:33:23.794Z,4.55
2022-08-19T06:35:50.348Z,6.85
2022-08-19T06:38:16.688Z,4.93
2022-08-19T06:43:10.437Z,7.03
2022-08-19T06:45:38.691Z,4.90
2022-08-19T06:48:06.016Z,4.43
2022-08-19T06:50:32.438Z,5.97
2022-08-19T06:53:01.479Z,9.10
2022-08-19T06:55:31.203Z,4.63
2022-08-19T06:58:03.160Z,4.22
2022-08-19T07:02:59.480Z,4.72
2022-08-19T07:05:27.717Z,5.10
2022-08-19T07:07:54.162Z,4.70
2022-08-19T07:10:24.727Z,4.35
2022-08-19T07:12:52.520Z,8.15
2022-08-19T07:15:19.018Z,4.72
2022-08-19T07:17:45.386Z,3.22
2022-08-19T07:20:14.522Z,5.85
2022-08-19T07:22:41.128Z,4.10
2022-08-19T07:25:09.446Z,3.70
2022-08-19T07:27:36.272Z,11.68
2022-08-19T07:30:04.036Z,3.72
2022-08-19T07:32:30.366Z,3.85
2022-08-19T07:34:57.187Z,3.40
2022-08-19T07:37:28.299Z,5.43
2022-08-19T07:39:57.316Z,4.18
2022-08-19T07:42:23.678Z,3.53
2022-08-19T07:44:51.084Z,2.67
2022-08-19T07:47:50.024Z,3.55
2022-08-19T07:50:07.877Z,4.80
2022-08-19T07:52:34.672Z,5.07
2022-08-19T07:55:01.014Z,4.88
2022-08-19T07:57:27.345Z,6.07
2022-08-19T07:59:53.811Z,2.72
2022-08-19T08:02:20.211Z,4.70
2022-08-19T08:04:46.790Z,3.55
2022-08-19T08:07:13.228Z,3.78
2022-08-19T08:09:42.077Z,3.67
2022-08-19T08:12:32.936Z,3.55
2022-08-19T08:15:02.785Z,3.03
2022-08-19T08:17:31.227Z,2.53
2022-08-19T08:20:16.499Z,3.33
2022-08-19T08:22:47.770Z,2.95
2022-08-19T08:25:19.341Z,2.92
2022-08-19T08:27:47.479Z,2.67
2022-08-19T08:30:23.125Z,3.00
2022-08-19T08:32:50.647Z,5.15
2022-08-19T08:35:21.066Z,2.95
2022-08-19T08:37:50.690Z,2.63
2022-08-19T08:40:31.401Z,4.20
2022-08-19T08:43:11.148Z,2.53
2022-08-19T08:45:51.883Z,2.63
2022-08-19T08:48:47.428Z,2.83
2022-08-19T08:51:24.639Z,2.50
2022-08-19T08:53:57.099Z,5.90
2022-08-19T08:56:23.831Z,10.82
2022-08-19T08:59:03.353Z,1.95
2022-08-19T09:01:30.429Z,2.28
2022-08-19T09:03:57.580Z,2.92
2022-08-19T09:06:38.281Z,1.70
2022-08-19T09:09:13.259Z,2.40
2022-08-19T09:11:57.778Z,5.22
2022-08-19T09:14:53.193Z,2.60
2022-08-19T09:17:26.201Z,5.30
2022-08-19T09:20:13.446Z,2.05
2022-08-19T09:22:42.298Z,2.20
2022-08-19T09:25:11.524Z,1.25
2022-08-19T09:27:53.936Z,2.72
2022-08-19T09:30:26.551Z,2.58
2022-08-19T09:32:53.817Z,1.35
2022-08-19T09:35:22.677Z,2.13
2022-08-19T09:37:49.495Z,9.98
2022-08-19T09:40:24.764Z,2.45
2022-08-19T09:42:52.567Z,2.67
2022-08-19T09:45:22.402Z,2.15
2022-08-19T09:47:51.416Z,2.53
2022-08-19T09:50:18.395Z,3.05
2022-08-19T09:52:53.847Z,3.13
2022-08-19T09:55:31.316Z,3.65
2022-08-19T09:58:00.563Z,2.55
2022-08-19T10:00:26.971Z,2.78
2022-08-19T10:02:53.374Z,2.33
2022-08-19T10:05:26.774Z,3.67
2022-08-19T10:07:53.701Z,1.80
2022-08-19T10:10:23.173Z,1.77
2022-08-19T10:12:51.238Z,1.75
2022-08-19T10:15:17.779Z,4.43
2022-08-19T10:17:56.411Z,1.73
2022-08-19T10:20:23.160Z,2.10
2022-08-19T10:22:51.834Z,2.10
2022-08-19T10:25:19.758Z,1.83
2022-08-19T10:27:51.479Z,1.80
2022-08-19T10:30:18.407Z,3.03
2022-08-19T10:32:46.643Z,2.17
2022-08-19T10:35:14.473Z,1.40
2022-08-19T10:37:56.720Z,3.70
2022-08-19T10:40:24.411Z,3.33
2022-08-19T10:42:51.173Z,1.98
2022-08-19T10:45:17.647Z,1.88
2022-08-19T10:47:44.114Z,3.88
2022-08-19T10:50:11.822Z,5.55
2022-08-19T10:52:39.643Z,5.72
2022-08-19T10:55:16.085Z,6.70
2022-08-19T11:00:28.825Z,2.17
2022-08-19T11:02:55.206Z,2.50
2022-08-19T11:05:21.542Z,2.13
2022-08-19T11:07:51.687Z,1.75
2022-08-19T11:10:21.608Z,3.22
2022-08-19T11:12:49.179Z,1.60
2022-08-19T11:15:15.767Z,3.00
2022-08-19T11:17:42.318Z,2.53
2022-08-19T11:20:09.315Z,1.80
2022-08-19T11:22:40.635Z,1.52
2022-08-19T11:25:10.980Z,1.75
2022-08-19T11:27:41.891Z,1.70
2022-08-19T11:30:09.504Z,3.53
2022-08-19T11:32:42.651Z,2.65
2022-08-19T11:35:12.311Z,4.40
2022-08-19T11:37:38.702Z,4.63
2022-08-19T11:40:07.232Z,1.90
2022-08-19T11:42:33.603Z,5.03
2022-08-19T11:44:59.933Z,2.38
2022-08-19T11:47:26.340Z,4.80
2022-08-19T11:49:52.666Z,3.05
2022-08-19T11:52:19.044Z,1.92
2022-08-19T11:54:45.467Z,2.85
2022-08-19T11:57:11.807Z,2.22
2022-08-19T11:59:38.131Z,2.95
2022-08-19T12:02:04.690Z,9.10
2022-08-19T12:04:31.084Z,2.38
2022-08-19T12:06:57.405Z,1.52
2022-08-19T12:09:23.731Z,1.65
2022-08-19T12:11:50.281Z,2.28
2022-08-19T12:14:16.936Z,1.98
2022-08-19T12:16:46.629Z,1.33
2022-08-19T12:19:21.890Z,5.90
2022-08-19T12:21:49.358Z,2.97
2022-08-19T12:24:15.737Z,1.63
2022-08-19T12:26:52.507Z,3.55
2022-08-19T12:29:23.646Z,3.45
2022-08-19T12:31:50.409Z,3.15
2022-08-19T12:34:16.938Z,4.00
2022-08-19T12:36:43.505Z,1.77
2022-08-19T12:39:10.663Z,3.65
2022-08-19T12:41:37.873Z,2.60
2022-08-19T12:44:18.332Z,0.95
2022-08-19T12:46:47.455Z,2.40
2022-08-19T12:49:52.301Z,1.38
2022-08-19T12:52:08.319Z,1.73
2022-08-19T12:54:36.120Z,1.75
2022-08-19T12:57:10.300Z,1.98
2022-08-19T12:59:38.669Z,2.20
2022-08-19T13:02:06.809Z,3.85
2022-08-19T13:04:34.696Z,1.30
2022-08-19T13:07:01.013Z,2.00
2022-08-19T13:09:27.483Z,3.78
2022-08-19T13:11:54.046Z,1.05
2022-08-19T13:14:20.636Z,1.73
2022-08-19T13:16:47.051Z,1.98
2022-08-19T13:19:13.391Z,1.17
2022-08-19T13:21:39.862Z,2.67
2022-08-19T13:24:08.996Z,1.45
2022-08-19T13:26:35.577Z,2.55
2022-08-19T13:29:01.980Z,1.23
2022-08-19T13:31:31.379Z,1.33
2022-08-19T13:33:57.703Z,2.72
2022-08-19T13:36:24.268Z,2.45
2022-08-19T13:38:50.662Z,3.05
2022-08-19T13:41:16.986Z,1.48
2022-08-19T13:43:43.392Z,1.80
2022-08-19T13:46:12.323Z,0.82
2022-08-19T13:48:38.714Z,5.32
2022-08-19T13:51:06.440Z,2.25
2022-08-19T13:53:32.824Z,1.20
2022-08-19T13:55:59.219Z,1.35
2022-08-19T13:58:25.670Z,1.48
2022-08-19T14:00:52.133Z,1.67
2022-08-19T14:03:18.689Z,2.20
2022-08-19T14:05:45.267Z,1.20
2022-08-19T14:08:11.598Z,1.73
2022-08-19T14:10:38.148Z,1.33
2022-08-19T14:13:05.310Z,1.20
2022-08-19T14:15:32.023Z,1.73
2022-08-19T14:17:58.582Z,0.70
2022-08-19T14:20:25.995Z,2.78
2022-08-19T14:22:53.358Z,2.50
2022-08-19T14:25:22.615Z,1.77
2022-08-19T14:27:50.381Z,1.17
2022-08-19T14:30:22.197Z,1.00
2022-08-19T14:32:48.880Z,0.90
2022-08-19T14:35:16.620Z,1.15
2022-08-19T14:37:45.801Z,1.65
2022-08-19T14:40:14.766Z,1.05
2022-08-19T14:42:41.727Z,12.68
2022-08-19T14:45:09.341Z,1.30
2022-08-19T14:47:36.149Z,1.58
2022-08-19T14:50:18.166Z,0.65
2022-08-19T14:52:45.970Z,5.07
2022-08-19T14:55:12.483Z,0.95
2022-08-19T14:57:40.984Z,2.47
2022-08-19T15:00:08.166Z,1.00
2022-08-19T15:02:35.547Z,0.82
2022-08-19T15:05:02.816Z,0.82
2022-08-19T15:07:29.646Z,1.00
2022-08-19T15:09:56.245Z,1.05
2022-08-19T15:12:22.560Z,1.10
2022-08-19T15:14:49.233Z,3.92
2022-08-19T15:17:18.682Z,1.77
2022-08-19T15:19:45.420Z,1.48
2022-08-19T15:22:12.387Z,1.65
2022-08-19T15:24:48.245Z,1.13
2022-08-19T15:27:14.800Z,2.75
2022-08-19T15:29:41.542Z,2.38
2022-08-19T15:32:08.879Z,1.25
2022-08-19T15:34:36.112Z,1.00
2022-08-19T15:37:03.258Z,3.25
2022-08-19T15:39:29.571Z,2.35
2022-08-19T15:41:55.973Z,2.00
2022-08-19T15:44:22.346Z,1.45
2022-08-19T15:46:49.216Z,1.30
2022-08-19T15:49:18.130Z,1.85
2022-08-19T15:51:47.543Z,1.83
2022-08-19T15:54:17.562Z,3.42
2022-08-19T15:56:44.384Z,1.02
2022-08-19T15:59:11.577Z,1.40
2022-08-19T16:01:40.925Z,3.63
2022-08-19T16:04:14.254Z,1.80
2022-08-19T16:06:51.010Z,1.38
2022-08-19T16:09:22.237Z,1.50
2022-08-19T16:11:56.732Z,1.25
2022-08-19T16:14:25.182Z,0.80
2022-08-19T16:16:51.910Z,1.10
2022-08-19T16:19:19.426Z,1.35
2022-08-19T16:21:50.200Z,3.58
2022-08-19T16:24:22.703Z,0.73
2022-08-19T16:26:49.097Z,1.63
2022-08-19T16:29:25.819Z,1.35
2022-08-19T16:32:01.297Z,1.52
2022-08-19T16:34:30.069Z,1.02
2022-08-19T16:36:56.394Z,0.73
2022-08-19T16:39:22.917Z,2.60
2022-08-19T16:41:49.595Z,1.15
2022-08-19T16:44:16.364Z,1.15
2022-08-19T16:46:43.035Z,1.60
2022-08-19T16:49:10.805Z,0.93
2022-08-19T16:51:38.529Z,2.13
2022-08-19T16:54:05.220Z,2.15
2022-08-19T16:56:31.535Z,1.70
2022-08-19T16:58:58.017Z,3.42
2022-08-19T17:01:24.591Z,1.58
2022-08-19T17:03:50.918Z,1.00
2022-08-19T17:06:21.194Z,2.13
2022-08-19T17:08:49.799Z,1.40
2022-08-19T17:11:18.958Z,1.83
2022-08-19T17:13:48.072Z,1.60
2022-08-19T17:16:18.885Z,1.10
2022-08-19T17:18:45.392Z,2.38
2022-08-19T17:21:11.738Z,1.77
2022-08-19T17:23:43.152Z,1.63
2022-08-19T17:26:16.822Z,1.10
2022-08-19T17:28:46.540Z,1.33
2022-08-19T17:31:13.089Z,1.52
2022-08-19T17:33:41.795Z,2.28
2022-08-19T17:36:08.676Z,2.10
2022-08-19T17:38:35.253Z,1.20
2022-08-19T17:41:01.756Z,2.85
2022-08-19T17:43:32.601Z,0.90
2022-08-19T17:46:02.642Z,1.70
2022-08-19T17:48:30.249Z,1.38
2022-08-19T17:50:57.012Z,6.50
2022-08-19T17:53:25.485Z,1.88
2022-08-19T17:55:51.867Z,5.30
2022-08-19T17:58:18.185Z,1.48
2022-08-19T18:00:54.040Z,1.10
2022-08-19T18:03:20.823Z,1.42
2022-08-19T18:05:47.239Z,1.67
2022-08-19T18:08:13.590Z,1.52
2022-08-19T18:10:40.154Z,2.92
2022-08-19T18:13:17.029Z,2.25
2022-08-19T18:15:44.429Z,3.40
2022-08-19T18:18:15.218Z,1.60
2022-08-19T18:20:42.162Z,1.90
2022-08-19T18:23:41.186Z,4.35
2022-08-19T18:25:54.937Z,1.08
2022-08-19T18:28:21.333Z,3.42
2022-08-19T18:30:47.632Z,1.85
2022-08-19T18:33:14.076Z,2.33
2022-08-19T18:35:44.102Z,1.60
2022-08-19T18:38:12.638Z,2.08
2022-08-19T18:40:39.216Z,1.65
2022-08-19T18:43:06.144Z,4.82
2022-08-19T18:45:33.267Z,1.63
2022-08-19T18:47:59.972Z,2.38
2022-08-19T18:50:26.506Z,1.50
2022-08-19T18:52:52.905Z,2.40
2022-08-19T18:55:19.639Z,5.53
2022-08-19T18:57:46.131Z,4.05
2022-08-19T19:00:13.134Z,3.20
2022-08-19T19:02:39.720Z,3.47
2022-08-19T19:05:07.743Z,3.83
2022-08-19T19:07:34.840Z,2.78
2022-08-19T19:10:01.154Z,6.22
2022-08-19T19:12:27.635Z,2.75
2022-08-19T19:14:54.163Z,1.83
2022-08-19T19:17:21.007Z,1.75
2022-08-19T19:19:47.562Z,3.75
2022-08-19T19:22:18.661Z,5.60
2022-08-19T19:24:45.307Z,2.78
2022-08-19T19:27:15.006Z,2.70
2022-08-19T19:29:42.422Z,1.55
2022-08-19T19:32:16.546Z,2.35
2022-08-19T19:34:43.298Z,3.50
2022-08-19T19:37:09.873Z,3.00
2022-08-19T19:39:45.988Z,2.28
2022-08-19T19:42:20.098Z,2.47
2022-08-19T19:44:48.578Z,4.35
2022-08-19T19:47:15.312Z,4.50
2022-08-19T19:50:03.767Z,1.92
2022-08-19T19:52:28.235Z,3.83
2022-08-19T19:54:54.551Z,2.85
2022-08-19T19:57:20.873Z,4.72
2022-08-19T19:59:51.525Z,2.47
2022-08-19T20:02:18.094Z,3.92
2022-08-19T20:04:44.405Z,2.88
2022-08-19T20:07:10.959Z,5.28
2022-08-19T20:09:58.343Z,2.53
2022-08-19T20:12:23.722Z,5.80
2022-08-19T20:14:50.101Z,3.15
2022-08-19T20:17:16.428Z,3.40
2022-08-19T20:19:42.892Z,1.90
2022-08-19T20:22:09.310Z,5.95
2022-08-19T20:24:37.289Z,4.25
2022-08-19T20:27:04.553Z,1.70
2022-08-19T20:29:39.391Z,4.72
2022-08-19T20:32:09.900Z,1.92
2022-08-19T20:34:36.217Z,2.25
2022-08-19T20:37:02.658Z,2.10
2022-08-19T20:39:29.269Z,4.35
2022-08-19T20:41:55.848Z,2.72
2022-08-19T20:44:22.261Z,5.20
2022-08-19T20:46:54.616Z,7.30
2022-08-19T20:49:22.360Z,2.17
2022-08-19T20:51:49.020Z,1.60
2022-08-19T20:54:15.431Z,6.85
2022-08-19T20:56:42.029Z,2.17
2022-08-19T20:59:08.439Z,2.45
2022-08-19T21:01:34.994Z,3.22
2022-08-19T21:04:01.594Z,2.78
2022-08-19T21:06:28.122Z,4.35
2022-08-19T21:08:55.918Z,2.28
2022-08-19T21:11:22.296Z,7.15
2022-08-19T21:13:48.953Z,4.55
2022-08-19T21:16:15.397Z,2.50
2022-08-19T21:18:41.793Z,3.58
2022-08-19T21:21:08.387Z,5.90
2022-08-19T21:23:34.974Z,2.30
2022-08-19T21:26:01.684Z,1.75
2022-08-19T21:28:34.994Z,3.00
2022-08-19T21:31:04.346Z,2.55
2022-08-19T21:33:31.886Z,2.33
2022-08-19T21:35:59.170Z,2.28
2022-08-19T21:38:25.882Z,3.03
2022-08-19T21:40:52.695Z,2.10
2022-08-19T21:43:19.035Z,4.00
2022-08-19T21:45:46.843Z,2.90
2022-08-19T21:48:13.898Z,3.30
2022-08-19T21:50:42.420Z,3.72
2022-08-19T21:53:11.941Z,2.60
2022-08-19T21:55:43.886Z,2.47
2022-08-19T21:58:10.282Z,1.98
2022-08-19T22:00:36.775Z,2.42
2022-08-19T22:03:03.947Z,2.33
2022-08-19T22:05:30.810Z,4.00
2022-08-19T22:07:59.229Z,3.70
2022-08-19T22:10:32.203Z,3.85
2022-08-19T22:12:58.935Z,2.38
2022-08-19T22:15:26.536Z,4.47
2022-08-19T22:17:53.583Z,3.70
2022-08-19T22:20:22.992Z,5.38
2022-08-19T22:22:53.574Z,4.68
2022-08-19T22:25:31.369Z,2.63
2022-08-19T22:28:02.400Z,3.00
2022-08-19T22:30:33.360Z,2.08
2022-08-19T22:33:02.209Z,4.75
2022-08-19T22:35:32.450Z,9.50
2022-08-19T22:37:59.625Z,2.63
2022-08-19T22:40:28.435Z,2.60
2022-08-19T22:43:28.415Z,3.47
2022-08-19T22:45:56.021Z,2.00
2022-08-19T22:48:25.577Z,2.25
2022-08-19T22:50:53.051Z,1.98
2022-08-19T22:53:19.374Z,2.80
2022-08-19T22:55:46.013Z,2.30
2022-08-19T22:58:12.317Z,2.30
2022-08-19T23:00:41.229Z,2.03
2022-08-19T23:03:07.795Z,2.15
2022-08-19T23:05:34.262Z,2.85
2022-08-19T23:08:04.287Z,3.45
2022-08-19T23:10:30.665Z,4.07
2022-08-19T23:12:58.419Z,4.97
2022-08-19T23:15:28.229Z,6.63
2022-08-19T23:17:59.836Z,2.63
2022-08-19T23:20:30.345Z,2.58
2022-08-19T23:22:57.518Z,2.88
2022-08-19T23:25:27.478Z,2.30
2022-08-19T23:27:54.105Z,4.05
2022-08-19T23:30:20.786Z,4.15
2022-08-19T23:32:47.107Z,2.45
2022-08-19T23:35:13.540Z,2.85
2022-08-19T23:37:39.865Z,2.20
2022-08-19T23:40:07.197Z,2.50
2022-08-19T23:42:33.664Z,7.90
2022-08-19T23:45:04.944Z,1.35
2022-08-19T23:47:32.135Z,5.82
2022-08-19T23:49:59.616Z,3.60
2022-08-19T23:52:26.297Z,1.80
2022-08-19T23:54:52.889Z,3.03
2022-08-19T23:57:19.338Z,6.10
2022-08-19T23:59:45.944Z,6.05
